Williston, ND

10:43 AM CDT on September 01, 2015 (GMT -0500)
Sloulin International | | Change Station
CLOSE
Current Station
Airport
Location: Williston,
Elevation: 1906 ft
Nearby Weather Stations

Elev 1906 ft 48.17 °N, 103.64 °W | Updated 51 minutes ago

Clear
Clear
65 °F
Feels Like 65 °F
N
4
Wind Variable Wind from South

Today
High -- | Low -- °F
--% Chance of Precip.
Yesterday
High -- | Low -- °F
Precip. -- in
7:12 AM 8:36 PM
Waning Gibbous, 88% visible
Pressure 29.82 in
Visibility 10.0 miles
Clouds Clear
Dew Point 48 °F
Humidity 54%
Rainfall 0.00 in
Snow Depth Not available.
UV 2 out of 12
Pollen 9.60 out of 12
Air Quality Not available.
Flu Activity Not available.
METAR KISN 011452Z AUTO 17003KT 10SM CLR 18/09 A2983 RMK AO2 SLP096 T01830089 58001
Pressure 29.82 in
Visibility 10.0 miles
Clouds Clear
Dew Point 48 °F
Humidity 54%
Rainfall 0.00 in
Snow Depth Not available.
UV 2 out of 12
Pollen 9.60 out of 12
Air Quality Not available.
Flu Activity Not available.
METAR KISN 011452Z AUTO 17003KT 10SM CLR 18/09 A2983 RMK AO2 SLP096 T01830089 58001

10-Day Weather Forecast

×

Almanac

Astronomy

Sep. 01, 2015 Rise Set
Actual Time
Civil Twilight
Nautical Twilight
Astronomical Twilight
Moon
Length of Visible Light
Length of Day
Tomorrow will be .
, % of the Moon is Illuminated

Today's Extremes

State Highs State Lows

Community

WunderPhotos

Upload Photos

1,851,538 photos uploaded!

WunderBlogs® & News

Nearby

Air Quality

  Air Quality AQ Index Pollutant
Not available.

Snow Depth

Station Depth Elevation

Earthquake Activity

City Distance Mag. Time & Date
Minimum magnitude displayed is 2.5.

Coastal Water Temperatures

Place Temperature

Stations

Nearby Weather Stations

Station Location Temp. Windchill Dew Point Humidity Wind Precip. Elev Updated Type